Terminal Aerodrome Forecast
Issued by NWS

Home | Current Version | Previous Version | Graphics & Text | Print | Product List | Glossary On
Versions: 1 2 3 4 5 6 7 8 9 10 11 12 13 14
000
FTUS43 KMPX 250536
TAFRNH
TAF
KRNH 250536Z 2506/2606 33013G20KT P6SM SCT035
     FM252100 26009KT P6SM FEW050 SCT150
     FM260000 22006KT P6SM BKN070=

USA.gov is the U.S. government's official web portal to all federal, state and local government web resources and services.